createdAt,value
2023-05-13T00:02:09.385Z,96878.34
2023-05-13T00:04:59.110Z,96879.31
2023-05-13T00:07:47.463Z,96872.56
2023-05-13T00:10:36.580Z,96882.94
2023-05-13T00:13:25.003Z,96882.94
2023-05-13T00:16:13.466Z,96879.16
2023-05-13T00:19:01.954Z,96878.53
2023-05-13T00:21:52.030Z,96875.38
2023-05-13T00:24:40.437Z,96882.94
2023-05-13T00:27:28.880Z,96878.94
2023-05-13T00:30:17.225Z,96886.72
2023-05-13T00:33:07.539Z,96891.19
2023-05-13T00:35:56.086Z,96889.41
2023-05-13T00:38:46.018Z,96901.25
2023-05-13T00:41:34.386Z,96894.09
2023-05-13T00:44:22.752Z,96895.06
2023-05-13T00:47:12.393Z,96897.06
2023-05-13T00:50:00.836Z,96891.88
2023-05-13T00:52:51.056Z,96885.50
2023-05-13T00:55:44.131Z,96890.50
2023-05-13T00:58:32.610Z,96885.03
2023-05-13T01:01:25.923Z,96878.34
2023-05-13T01:04:19.119Z,96885.44
2023-05-13T01:07:14.109Z,96894.41
2023-05-13T01:10:09.270Z,96890.19
2023-05-13T01:13:00.278Z,96885.16
2023-05-13T01:15:55.830Z,96895.78
2023-05-13T01:18:46.654Z,96894.31
2023-05-13T01:21:39.973Z,96897.91
2023-05-13T01:24:28.494Z,96890.13
2023-05-13T01:27:18.252Z,96895.91
2023-05-13T01:30:08.697Z,96896.38
2023-05-13T01:32:57.445Z,96891.69
2023-05-13T01:35:46.868Z,96886.81
2023-05-13T01:38:39.127Z,96887.72
2023-05-13T01:41:27.643Z,96888.94
2023-05-13T01:44:16.615Z,96892.00
2023-05-13T01:47:06.169Z,96892.69
2023-05-13T01:49:54.741Z,96890.50
2023-05-13T01:52:43.144Z,96891.69
2023-05-13T01:55:33.262Z,96891.00
2023-05-13T01:58:23.978Z,96892.31
2023-05-13T02:01:12.584Z,96890.94
2023-05-13T02:04:01.021Z,96886.31
2023-05-13T02:06:49.524Z,96890.72
2023-05-13T02:09:38.174Z,96897.06
2023-05-13T02:12:28.959Z,96900.25
2023-05-13T02:15:17.350Z,96890.53
2023-05-13T02:18:05.973Z,96895.91
2023-05-13T02:20:54.522Z,96896.78
2023-05-13T02:23:42.876Z,96888.34
2023-05-13T02:26:31.356Z,96895.28
2023-05-13T02:29:21.164Z,96896.31
2023-05-13T02:32:09.613Z,96889.72
2023-05-13T02:34:58.112Z,96892.13
2023-05-13T02:37:47.297Z,96890.41
2023-05-13T02:40:35.682Z,96898.59
2023-05-13T02:43:25.013Z,96898.59
2023-05-13T02:46:20.062Z,96896.47
2023-05-13T02:49:08.982Z,96901.16
2023-05-13T02:51:57.349Z,96889.31
2023-05-13T02:54:52.829Z,96896.69
2023-05-13T02:57:43.914Z,96893.72
2023-05-13T03:00:32.431Z,96898.16
2023-05-13T03:03:22.368Z,96893.69
2023-05-13T03:06:11.639Z,96903.06
2023-05-13T03:09:00.052Z,96899.66
2023-05-13T03:11:48.508Z,96907.81
2023-05-13T03:14:37.249Z,96902.44
2023-05-13T03:17:26.305Z,96906.63
2023-05-13T03:20:16.548Z,96905.03
2023-05-13T03:23:05.443Z,96906.84
2023-05-13T03:25:55.021Z,96906.03
2023-05-13T03:28:43.441Z,96905.63
2023-05-13T03:31:32.106Z,96903.53
2023-05-13T03:34:23.181Z,96902.25
2023-05-13T03:37:12.989Z,96903.72
2023-05-13T03:40:01.581Z,96905.81
2023-05-13T03:42:50.551Z,96911.28
2023-05-13T03:45:40.112Z,96910.53
2023-05-13T03:48:33.713Z,96910.59
2023-05-13T03:51:23.637Z,96914.78
2023-05-13T03:54:13.913Z,96918.47
2023-05-13T03:57:02.263Z,96917.19
2023-05-13T03:59:50.683Z,96919.97
2023-05-13T04:02:41.283Z,96924.66
2023-05-13T04:05:30.188Z,96922.47
2023-05-13T04:08:19.190Z,96923.75
2023-05-13T04:11:08.974Z,96932.31
2023-05-13T04:13:57.566Z,96927.44
2023-05-13T04:16:46.100Z,96936.47
2023-05-13T04:19:34.492Z,96929.94
2023-05-13T04:22:23.047Z,96930.41
2023-05-13T04:25:11.704Z,96930.53
2023-05-13T04:28:01.336Z,96938.47
2023-05-13T04:30:54.473Z,96938.56
2023-05-13T04:33:42.905Z,96943.66
2023-05-13T04:36:31.501Z,96944.81
2023-05-13T04:39:19.870Z,96941.91
2023-05-13T04:42:08.778Z,96944.94
2023-05-13T04:44:58.440Z,96951.66
2023-05-13T04:47:49.390Z,96958.94
2023-05-13T04:50:38.078Z,96954.16
2023-05-13T04:53:27.172Z,96960.34
2023-05-13T04:56:18.494Z,96967.06
2023-05-13T04:59:06.824Z,96963.03
2023-05-13T05:01:56.602Z,96966.16
2023-05-13T05:04:46.017Z,96967.78
2023-05-13T05:07:40.191Z,96973.72
2023-05-13T05:10:28.664Z,96967.31
2023-05-13T05:13:20.684Z,96970.59
2023-05-13T05:16:09.286Z,96965.81
2023-05-13T05:18:59.291Z,96963.72
2023-05-13T05:21:48.073Z,96966.00
2023-05-13T05:24:39.070Z,96962.03
2023-05-13T05:27:27.406Z,96959.75
2023-05-13T05:30:17.124Z,96966.94
2023-05-13T05:33:10.059Z,96966.41
2023-05-13T05:36:02.261Z,96971.59
2023-05-13T05:38:50.763Z,96970.00
2023-05-13T05:41:39.339Z,96973.28
2023-05-13T05:44:28.215Z,96979.75
2023-05-13T05:47:16.620Z,96982.00
2023-05-13T05:50:05.399Z,96978.25
2023-05-13T05:52:55.124Z,96982.00
2023-05-13T05:55:43.701Z,96986.22
2023-05-13T05:58:32.021Z,96986.72
2023-05-13T06:01:20.505Z,96981.44
2023-05-13T06:04:09.279Z,96981.44
2023-05-13T06:06:57.781Z,96988.59
2023-05-13T06:09:48.262Z,96987.00
2023-05-13T06:12:36.849Z,96986.59
2023-05-13T06:15:25.230Z,96981.69
2023-05-13T06:18:13.597Z,96988.41
2023-05-13T06:21:02.057Z,96986.91
2023-05-13T06:23:50.674Z,96993.50
2023-05-13T06:26:40.415Z,96994.41
2023-05-13T06:29:28.758Z,96997.94
2023-05-13T06:32:17.203Z,96994.66
2023-05-13T06:35:06.003Z,97001.34
2023-05-13T06:37:54.576Z,96995.75
2023-05-13T06:40:43.268Z,96996.94
2023-05-13T06:43:33.178Z,96999.94
2023-05-13T06:46:29.690Z,96997.72
2023-05-13T06:49:18.077Z,97002.63
2023-05-13T06:52:07.139Z,96999.53
2023-05-13T06:54:55.460Z,97009.19
2023-05-13T06:57:46.708Z,97007.88
2023-05-13T07:00:38.202Z,97007.09
2023-05-13T07:03:26.576Z,97000.72
2023-05-13T07:06:17.352Z,97007.81
2023-05-13T07:09:08.334Z,97006.44
2023-05-13T07:11:57.043Z,97004.41
2023-05-13T07:14:45.472Z,97009.81
2023-05-13T07:17:35.340Z,97014.56
2023-05-13T07:20:24.364Z,97011.81
2023-05-13T07:23:12.870Z,97022.56
2023-05-13T07:26:01.329Z,97019.56
2023-05-13T07:28:49.711Z,97009.19
2023-05-13T07:31:38.122Z,97018.34
2023-05-13T07:34:27.913Z,97013.91
2023-05-13T07:37:16.369Z,97014.56
2023-05-13T07:40:05.892Z,97022.75
2023-05-13T07:42:54.288Z,97018.75
2023-05-13T07:45:45.182Z,97021.16
2023-05-13T07:48:33.735Z,97018.75
2023-05-13T07:51:23.478Z,97021.56
2023-05-13T07:54:11.840Z,97019.84
2023-05-13T07:57:00.440Z,97022.53
2023-05-13T07:59:48.796Z,97023.97
2023-05-13T08:02:39.340Z,97031.53
2023-05-13T08:05:27.860Z,97030.50
2023-05-13T08:08:17.567Z,97028.03
2023-05-13T08:11:06.059Z,97021.34
2023-05-13T08:13:54.529Z,97024.44
2023-05-13T08:16:42.908Z,97033.22
2023-05-13T08:19:31.273Z,97027.13
2023-05-13T08:22:19.645Z,97035.63
2023-05-13T08:25:11.266Z,97037.91
2023-05-13T08:27:59.689Z,97028.75
2023-05-13T08:30:48.093Z,97031.41
2023-05-13T08:33:39.941Z,97041.06
2023-05-13T08:36:28.702Z,97039.47
2023-05-13T08:39:17.103Z,97041.28
2023-05-13T08:42:09.624Z,97038.09
2023-05-13T08:44:58.477Z,97036.13
2023-05-13T08:47:52.467Z,97044.47
2023-05-13T08:50:41.123Z,97044.84
2023-05-13T08:53:31.441Z,97046.06
2023-05-13T08:56:19.927Z,97043.47
2023-05-13T08:59:09.697Z,97050.25
2023-05-13T09:01:58.053Z,97040.47
2023-05-13T09:04:47.991Z,97044.25
2023-05-13T09:07:37.305Z,97041.53
2023-05-13T09:10:25.705Z,97037.78
2023-05-13T09:13:14.826Z,97045.16
2023-05-13T09:16:04.656Z,97038.00
2023-05-13T09:19:00.410Z,97041.16
2023-05-13T09:21:51.897Z,97041.50
2023-05-13T09:24:41.621Z,97037.59
2023-05-13T09:27:38.657Z,97047.69
2023-05-13T09:30:27.652Z,97026.81
2023-05-13T09:33:19.954Z,97036.41
2023-05-13T09:36:14.767Z,97040.09
2023-05-13T09:39:04.163Z,97031.41
2023-05-13T09:41:53.497Z,97033.25
2023-05-13T09:44:41.927Z,97027.22
2023-05-13T09:47:30.292Z,97032.06
2023-05-13T09:50:20.278Z,97032.25
2023-05-13T09:53:12.910Z,97027.66
2023-05-13T09:56:01.831Z,97033.47
2023-05-13T09:58:52.780Z,97038.25
2023-05-13T10:01:41.728Z,97037.94
2023-05-13T10:04:30.325Z,97042.09
2023-05-13T10:07:24.635Z,97039.41
2023-05-13T10:10:13.484Z,97040.59
2023-05-13T10:13:05.651Z,97027.25
2023-05-13T10:15:55.219Z,97027.97
2023-05-13T10:18:43.696Z,97029.31
2023-05-13T10:21:32.600Z,97020.94
2023-05-13T10:24:23.131Z,97020.19
2023-05-13T10:27:12.906Z,97017.34
2023-05-13T10:30:04.400Z,97021.63
2023-05-13T10:32:54.643Z,97021.00
2023-05-13T10:35:54.819Z,97019.53
2023-05-13T10:38:54.716Z,97023.41
2023-05-13T10:42:10.438Z,97023.94
2023-05-13T10:44:59.074Z,97030.84
2023-05-13T10:47:51.171Z,97017.38
2023-05-13T10:50:39.943Z,97026.97
2023-05-13T10:53:31.068Z,97026.75
2023-05-13T10:56:21.967Z,97019.78
2023-05-13T10:59:13.234Z,97018.44
2023-05-13T11:02:03.597Z,97020.38
2023-05-13T11:04:59.111Z,97014.66
2023-05-13T11:07:56.408Z,97022.13
2023-05-13T11:10:55.761Z,97023.34
2023-05-13T11:13:44.243Z,97032.63
2023-05-13T11:16:34.530Z,97032.81
2023-05-13T11:19:24.943Z,97025.03
2023-05-13T11:22:15.439Z,97021.88
2023-05-13T11:25:14.081Z,97039.00
2023-05-13T11:28:02.622Z,97022.66
2023-05-13T11:30:56.828Z,97022.19
2023-05-13T11:34:12.351Z,97017.91
2023-05-13T11:37:09.600Z,97027.97
2023-05-13T11:39:58.462Z,97025.09
2023-05-13T11:42:49.751Z,97030.81
2023-05-13T11:45:40.020Z,97024.44
2023-05-13T11:48:30.118Z,97023.81
2023-05-13T11:51:20.545Z,97024.78
2023-05-13T11:54:08.905Z,97026.03
2023-05-13T11:56:57.590Z,97021.91
2023-05-13T11:59:51.129Z,97021.94
2023-05-13T12:02:41.960Z,97024.94
2023-05-13T12:05:30.750Z,97028.91
2023-05-13T12:08:23.766Z,97030.19
2023-05-13T12:11:13.243Z,97026.34
2023-05-13T12:14:02.078Z,97031.59
2023-05-13T12:16:51.022Z,97026.50
2023-05-13T12:19:39.398Z,97024.09
2023-05-13T12:22:27.757Z,97028.69
2023-05-13T12:25:40.318Z,97028.06
2023-05-13T12:28:28.736Z,97027.06
2023-05-13T12:31:18.530Z,97028.81
2023-05-13T12:34:07.462Z,97021.16
2023-05-13T12:36:55.970Z,97018.00
2023-05-13T12:39:44.706Z,97021.63
2023-05-13T12:42:34.477Z,97020.97
2023-05-13T12:45:23.507Z,97032.09
2023-05-13T12:48:12.210Z,97018.69
2023-05-13T12:51:02.137Z,97023.56
2023-05-13T12:53:50.803Z,97015.47
2023-05-13T12:56:40.169Z,97007.34
2023-05-13T12:59:31.269Z,97013.69
2023-05-13T13:02:19.746Z,97013.50
2023-05-13T13:05:09.276Z,97011.63
2023-05-13T13:07:57.596Z,97014.63
2023-05-13T13:10:48.947Z,97009.19
2023-05-13T13:13:39.632Z,97009.44
2023-05-13T13:16:30.016Z,97010.53
2023-05-13T13:19:18.474Z,97009.91
2023-05-13T13:22:09.527Z,97001.25
2023-05-13T13:24:57.909Z,96997.69
2023-05-13T13:27:46.375Z,97002.09
2023-05-13T13:30:34.769Z,97007.00
2023-05-13T13:33:24.579Z,96996.34
2023-05-13T13:36:12.967Z,96994.94
2023-05-13T13:39:01.379Z,96997.81
2023-05-13T13:41:49.730Z,96998.91
2023-05-13T13:44:39.486Z,96997.75
2023-05-13T13:47:30.829Z,96987.94
2023-05-13T13:50:20.759Z,96989.53
2023-05-13T13:53:09.275Z,96987.03
2023-05-13T13:55:57.715Z,96988.66
2023-05-13T13:58:46.053Z,96987.09
2023-05-13T14:01:34.474Z,96980.53
2023-05-13T14:04:26.175Z,96984.63
2023-05-13T14:07:16.008Z,96990.72
2023-05-13T14:10:05.022Z,96976.97
2023-05-13T14:12:53.592Z,96972.22
2023-05-13T14:15:41.986Z,96968.13
2023-05-13T14:18:30.423Z,96974.25
2023-05-13T14:21:18.806Z,96980.81
2023-05-13T14:24:11.890Z,96978.47
2023-05-13T14:27:00.412Z,96972.72
2023-05-13T14:29:51.523Z,96970.75
2023-05-13T14:32:42.498Z,96969.31
2023-05-13T14:35:31.002Z,96967.72
2023-05-13T14:38:19.617Z,96967.50
2023-05-13T14:41:09.593Z,96971.28
2023-05-13T14:43:58.371Z,96967.38
2023-05-13T14:46:47.147Z,96958.84
2023-05-13T14:49:35.559Z,96960.66
2023-05-13T14:52:26.896Z,96958.47
2023-05-13T14:55:15.363Z,96961.22
2023-05-13T14:58:05.144Z,96954.31
2023-05-13T15:00:56.122Z,96955.53
2023-05-13T15:03:44.555Z,96949.41
2023-05-13T15:06:33.040Z,96955.50
2023-05-13T15:09:21.395Z,96946.75
2023-05-13T15:12:10.954Z,96953.09
2023-05-13T15:15:00.810Z,96952.03
2023-05-13T15:17:49.213Z,96954.97
2023-05-13T15:20:37.583Z,96942.78
2023-05-13T15:23:25.954Z,96946.94
2023-05-13T15:26:14.288Z,96941.28
2023-05-13T15:29:03.282Z,96939.38
2023-05-13T15:31:53.051Z,96939.81
2023-05-13T15:34:41.428Z,96942.97
2023-05-13T15:37:29.810Z,96943.22
2023-05-13T15:40:18.179Z,96939.50
2023-05-13T15:43:06.606Z,96939.81
2023-05-13T15:45:58.936Z,96930.56
2023-05-13T15:48:48.748Z,96931.13
2023-05-13T15:51:37.708Z,96929.81
2023-05-13T15:54:26.079Z,96931.13
2023-05-13T15:57:14.903Z,96931.63
2023-05-13T16:00:03.383Z,96931.19
2023-05-13T16:02:55.781Z,96928.31
2023-05-13T16:05:48.271Z,96922.78
2023-05-13T16:08:36.648Z,96925.28
2023-05-13T16:11:25.061Z,96917.00
2023-05-13T16:14:13.493Z,96920.66
2023-05-13T16:17:01.895Z,96915.84
2023-05-13T16:19:50.358Z,96918.34
2023-05-13T16:22:43.499Z,96911.16
2023-05-13T16:25:31.859Z,96912.72
2023-05-13T16:28:20.556Z,96912.09
2023-05-13T16:31:11.068Z,96908.28
2023-05-13T16:33:59.589Z,96902.13
2023-05-13T16:36:47.935Z,96906.31
2023-05-13T16:39:37.776Z,96907.41
2023-05-13T16:42:28.427Z,96910.47
2023-05-13T16:45:19.974Z,96917.88
2023-05-13T16:48:11.195Z,96915.47
2023-05-13T16:50:59.640Z,96922.75
2023-05-13T16:53:48.002Z,96906.72
2023-05-13T16:56:37.730Z,96914.16
2023-05-13T16:59:27.584Z,96910.91
2023-05-13T17:02:16.113Z,96913.09
2023-05-13T17:05:08.018Z,96911.13
2023-05-13T17:07:56.400Z,96908.56
2023-05-13T17:10:44.823Z,96905.91
2023-05-13T17:13:34.542Z,96904.16
2023-05-13T17:16:22.957Z,96911.81
2023-05-13T17:19:11.565Z,96902.28
2023-05-13T17:22:00.068Z,96907.72
2023-05-13T17:24:48.426Z,96900.50
2023-05-13T17:27:38.919Z,96893.97
2023-05-13T17:30:34.389Z,96899.13
2023-05-13T17:33:23.035Z,96900.38
2023-05-13T17:36:11.830Z,96913.13
2023-05-13T17:39:00.204Z,96917.91
2023-05-13T17:41:53.775Z,96916.72
2023-05-13T17:44:42.379Z,96919.88
2023-05-13T17:47:32.187Z,96920.78
2023-05-13T17:50:20.949Z,96917.28
2023-05-13T17:53:09.472Z,96923.81
2023-05-13T17:55:57.902Z,96924.91
2023-05-13T17:58:46.265Z,96926.13
2023-05-13T18:01:34.754Z,96924.19
2023-05-13T18:04:24.469Z,96930.44
2023-05-13T18:07:15.660Z,96925.22
2023-05-13T18:10:04.125Z,96933.31
2023-05-13T18:12:54.854Z,96934.50
2023-05-13T18:15:43.229Z,96947.97
2023-05-13T18:18:32.054Z,96965.84
2023-05-13T18:21:24.134Z,96966.66
2023-05-13T18:24:12.531Z,96977.09
2023-05-13T18:27:00.913Z,96974.84
2023-05-13T18:29:49.329Z,96989.16
2023-05-13T18:32:40.181Z,96993.59
2023-05-13T18:35:28.601Z,96989.31
2023-05-13T18:38:18.401Z,96989.16
2023-05-13T18:41:09.305Z,96992.19
2023-05-13T18:44:00.059Z,96996.16
2023-05-13T18:46:57.021Z,96991.06
2023-05-13T18:49:47.625Z,96994.56
2023-05-13T18:52:39.297Z,97001.56
2023-05-13T18:55:29.295Z,97005.69
2023-05-13T18:58:17.792Z,97004.41
2023-05-13T19:01:06.576Z,97002.03
2023-05-13T19:03:55.125Z,97009.03
2023-05-13T19:06:43.620Z,97001.22
2023-05-13T19:09:33.466Z,97014.88
2023-05-13T19:12:26.434Z,97015.19
2023-05-13T19:15:14.764Z,97015.84
2023-05-13T19:18:03.305Z,97020.28
2023-05-13T19:20:51.675Z,97023.47
2023-05-13T19:23:42.300Z,97028.41
2023-05-13T19:26:31.011Z,97023.16
2023-05-13T19:29:20.808Z,97031.28
2023-05-13T19:32:09.220Z,97027.44
2023-05-13T19:34:57.909Z,97026.00
2023-05-13T19:37:48.429Z,97028.22
2023-05-13T19:40:36.779Z,97025.53
2023-05-13T19:43:25.303Z,97024.97
2023-05-13T19:46:15.142Z,97025.03
2023-05-13T19:49:03.676Z,97024.19
2023-05-13T19:51:52.261Z,97025.63
2023-05-13T19:54:40.637Z,97024.53
2023-05-13T19:57:30.132Z,97026.44
2023-05-13T20:00:19.052Z,97026.03
2023-05-13T20:03:08.906Z,97021.28
2023-05-13T20:05:57.479Z,97024.47
2023-05-13T20:08:45.938Z,97017.94
2023-05-13T20:11:34.303Z,97020.69
2023-05-13T20:14:25.001Z,97019.41
2023-05-13T20:17:16.960Z,97013.06
2023-05-13T20:20:08.244Z,97015.94
2023-05-13T20:22:58.854Z,97010.03
2023-05-13T20:25:47.644Z,97008.13
2023-05-13T20:28:37.564Z,97001.75
2023-05-13T20:31:26.364Z,97007.78
2023-05-13T20:34:15.285Z,97004.00
2023-05-13T20:37:05.472Z,96999.84
2023-05-13T20:39:54.075Z,97006.28
2023-05-13T20:42:42.449Z,97001.38
2023-05-13T20:45:30.808Z,96998.09
2023-05-13T20:48:19.176Z,97004.78
2023-05-13T20:51:07.866Z,96998.09
2023-05-13T20:53:57.592Z,96997.44
2023-05-13T20:56:46.054Z,96990.16
2023-05-13T20:59:34.928Z,96989.84
2023-05-13T21:02:23.392Z,96991.44
2023-05-13T21:05:12.232Z,96987.91
2023-05-13T21:08:01.165Z,96987.91
2023-05-13T21:10:50.913Z,96988.53
2023-05-13T21:13:39.269Z,96985.84
2023-05-13T21:16:27.799Z,96975.00
2023-05-13T21:19:22.724Z,96973.91
2023-05-13T21:22:11.084Z,96978.63
2023-05-13T21:24:59.454Z,96972.75
2023-05-13T21:27:49.666Z,96968.44
2023-05-13T21:30:38.089Z,96974.84
2023-05-13T21:33:26.435Z,96968.28
2023-05-13T21:36:14.764Z,96970.47
2023-05-13T21:39:03.170Z,96967.41
2023-05-13T21:41:51.500Z,96966.44
2023-05-13T21:44:41.948Z,96978.31
2023-05-13T21:47:30.515Z,96973.22
2023-05-13T21:50:18.978Z,96967.47
2023-05-13T21:53:07.283Z,96967.88
2023-05-13T21:55:56.657Z,96973.91
2023-05-13T21:58:45.117Z,96969.13
2023-05-13T22:01:34.847Z,96966.41
2023-05-13T22:04:25.627Z,96954.75
2023-05-13T22:07:14.832Z,96955.78
2023-05-13T22:10:03.249Z,96958.47
2023-05-13T22:12:51.690Z,96953.09
2023-05-13T22:15:40.145Z,96957.25
2023-05-13T22:18:30.101Z,96952.03
2023-05-13T22:21:18.516Z,96949.28
2023-05-13T22:24:08.274Z,96945.63
2023-05-13T22:26:56.633Z,96945.50
2023-05-13T22:29:45.145Z,96953.50
2023-05-13T22:32:34.385Z,96964.91
2023-05-13T22:35:24.271Z,96959.81
2023-05-13T22:38:12.628Z,96960.91
2023-05-13T22:41:00.948Z,96957.50
2023-05-13T22:43:49.272Z,96967.25
2023-05-13T22:46:37.763Z,96960.91
2023-05-13T22:49:26.402Z,96955.13
2023-05-13T22:52:16.177Z,96961.59
2023-05-13T22:55:04.643Z,96970.50
2023-05-13T22:57:53.010Z,96969.22
2023-05-13T23:00:41.400Z,96963.31
2023-05-13T23:03:29.760Z,96959.38
2023-05-13T23:06:18.119Z,96962.22
2023-05-13T23:09:07.841Z,96956.06
2023-05-13T23:11:56.264Z,96954.16
2023-05-13T23:14:44.682Z,96956.44
2023-05-13T23:17:33.156Z,96954.53
2023-05-13T23:20:21.706Z,96952.16
2023-05-13T23:23:10.183Z,96951.97
2023-05-13T23:25:59.936Z,96948.47
2023-05-13T23:28:49.032Z,96951.16
2023-05-13T23:31:37.564Z,96953.25
2023-05-13T23:34:26.064Z,96955.47
2023-05-13T23:37:15.650Z,96946.59
2023-05-13T23:40:04.342Z,96951.34
2023-05-13T23:42:54.140Z,96951.06
2023-05-13T23:45:42.614Z,96941.38
2023-05-13T23:48:32.810Z,96943.28
2023-05-13T23:51:21.212Z,96951.84
2023-05-13T23:54:09.621Z,96945.16
2023-05-13T23:56:57.978Z,96944.88
2023-05-13T23:59:47.693Z,96950.53
